sensor_id;sensor_type;location;lat;lon;timestamp;pressure;altitude;pressure_sealevel;temperature;humidity
69980;BME280;57318;56.232;43.944;2022-12-07T00:01:07;100914.66;;;-11.44;75.41
69980;BME280;57318;56.232;43.944;2022-12-07T00:03:33;100909.56;;;-11.42;75.26
69980;BME280;57318;56.232;43.944;2022-12-07T00:06:01;100908.66;;;-11.44;75.38
69980;BME280;57318;56.232;43.944;2022-12-07T00:08:27;100905.25;;;-11.43;75.54
69980;BME280;57318;56.232;43.944;2022-12-07T00:10:53;100904.34;;;-11.45;75.66
69980;BME280;57318;56.232;43.944;2022-12-07T00:13:18;100907.72;;;-11.46;75.82
69980;BME280;57318;56.232;43.944;2022-12-07T00:15:44;100903.38;;;-11.49;75.85
69980;BME280;57318;56.232;43.944;2022-12-07T00:18:10;100903.28;;;-11.52;76.14
69980;BME280;57318;56.232;43.944;2022-12-07T00:20:35;100896.59;;;-11.47;75.65
69980;BME280;57318;56.232;43.944;2022-12-07T00:23:01;100893.06;;;-11.50;75.92
69980;BME280;57318;56.232;43.944;2022-12-07T00:25:27;100895.78;;;-11.46;75.70
69980;BME280;57318;56.232;43.944;2022-12-07T00:27:53;100897.47;;;-11.46;75.53
69980;BME280;57318;56.232;43.944;2022-12-07T00:30:21;100899.09;;;-11.48;75.67
69980;BME280;57318;56.232;43.944;2022-12-07T00:32:47;100902.53;;;-11.48;75.71
69980;BME280;57318;56.232;43.944;2022-12-07T00:35:13;100897.25;;;-11.52;75.93
69980;BME280;57318;56.232;43.944;2022-12-07T00:37:38;100892.13;;;-11.52;75.97
69980;BME280;57318;56.232;43.944;2022-12-07T00:40:05;100894.59;;;-11.55;75.93
69980;BME280;57318;56.232;43.944;2022-12-07T00:42:30;100880.97;;;-11.54;76.17
69980;BME280;57318;56.232;43.944;2022-12-07T00:44:56;100887.00;;;-11.52;75.85
69980;BME280;57318;56.232;43.944;2022-12-07T00:47:21;100892.97;;;-11.53;75.87
69980;BME280;57318;56.232;43.944;2022-12-07T00:49:47;100896.44;;;-11.51;75.76
69980;BME280;57318;56.232;43.944;2022-12-07T00:52:13;100894.78;;;-11.49;75.58
69980;BME280;57318;56.232;43.944;2022-12-07T00:54:39;100899.00;;;-11.51;75.69
69980;BME280;57318;56.232;43.944;2022-12-07T00:57:05;100904.19;;;-11.50;75.76
69980;BME280;57318;56.232;43.944;2022-12-07T00:59:31;100904.94;;;-11.52;75.86
69980;BME280;57318;56.232;43.944;2022-12-07T01:01:56;100903.22;;;-11.53;75.57
69980;BME280;57318;56.232;43.944;2022-12-07T01:04:22;100892.03;;;-11.55;75.88
69980;BME280;57318;56.232;43.944;2022-12-07T01:06:47;100902.28;;;-11.55;75.80
69980;BME280;57318;56.232;43.944;2022-12-07T01:09:13;100903.94;;;-11.57;75.49
69980;BME280;57318;56.232;43.944;2022-12-07T01:11:38;100900.41;;;-11.61;75.97
69980;BME280;57318;56.232;43.944;2022-12-07T01:14:04;100905.59;;;-11.59;75.87
69980;BME280;57318;56.232;43.944;2022-12-07T01:16:31;100905.47;;;-11.63;75.68
69980;BME280;57318;56.232;43.944;2022-12-07T01:18:59;100894.31;;;-11.65;75.79
69980;BME280;57318;56.232;43.944;2022-12-07T01:21:27;100898.53;;;-11.65;75.85
69980;BME280;57318;56.232;43.944;2022-12-07T01:23:53;100898.44;;;-11.68;75.91
69980;BME280;57318;56.232;43.944;2022-12-07T01:26:23;100899.22;;;-11.71;76.06
69980;BME280;57318;56.232;43.944;2022-12-07T01:28:49;100900.09;;;-11.70;75.93
69980;BME280;57318;56.232;43.944;2022-12-07T01:31:19;100898.28;;;-11.73;75.81
69980;BME280;57318;56.232;43.944;2022-12-07T01:33:47;100895.72;;;-11.73;75.70
69980;BME280;57318;56.232;43.944;2022-12-07T01:38:43;100901.84;;;-11.69;75.53
69980;BME280;57318;56.232;43.944;2022-12-07T01:41:09;100896.78;;;-11.68;75.59
69980;BME280;57318;56.232;43.944;2022-12-07T01:43:35;100900.97;;;-11.70;75.67
69980;BME280;57318;56.232;43.944;2022-12-07T01:46:02;100893.94;;;-11.75;75.76
69980;BME280;57318;56.232;43.944;2022-12-07T01:48:38;100894.88;;;-11.73;75.66
69980;BME280;57318;56.232;43.944;2022-12-07T01:51:09;100891.38;;;-11.75;75.79
69980;BME280;57318;56.232;43.944;2022-12-07T01:53:39;100890.50;;;-11.76;75.87
69980;BME280;57318;56.232;43.944;2022-12-07T01:56:08;100899.22;;;-11.71;75.38
69980;BME280;57318;56.232;43.944;2022-12-07T01:58:35;100892.34;;;-11.72;75.15
69980;BME280;57318;56.232;43.944;2022-12-07T02:01:01;100896.63;;;-11.72;75.32
69980;BME280;57318;56.232;43.944;2022-12-07T02:03:38;100895.72;;;-11.73;75.31
69980;BME280;57318;56.232;43.944;2022-12-07T02:06:05;100896.56;;;-11.74;75.07
69980;BME280;57318;56.232;43.944;2022-12-07T02:08:32;100895.66;;;-11.74;75.31
69980;BME280;57318;56.232;43.944;2022-12-07T02:10:58;100909.34;;;-11.75;75.49
69980;BME280;57318;56.232;43.944;2022-12-07T02:13:26;100894.72;;;-11.78;75.18
69980;BME280;57318;56.232;43.944;2022-12-07T02:16:14;100898.88;;;-11.82;75.31
69980;BME280;57318;56.232;43.944;2022-12-07T02:21:13;100905.59;;;-11.84;75.40
69980;BME280;57318;56.232;43.944;2022-12-07T02:29:17;100901.28;;;-11.86;75.23
69980;BME280;57318;56.232;43.944;2022-12-07T02:34:47;100919.91;;;-11.90;75.66
69980;BME280;57318;56.232;43.944;2022-12-07T02:37:21;100901.97;;;-11.90;75.29
69980;BME280;57318;56.232;43.944;2022-12-07T02:39:56;100894.25;;;-11.92;75.29
69980;BME280;57318;56.232;43.944;2022-12-07T02:42:28;100893.41;;;-11.91;75.61
69980;BME280;57318;56.232;43.944;2022-12-07T02:44:57;100902.75;;;-11.94;75.64
69980;BME280;57318;56.232;43.944;2022-12-07T02:47:24;100895.75;;;-11.99;75.81
69980;BME280;57318;56.232;43.944;2022-12-07T02:49:52;100896.63;;;-11.98;75.84
69980;BME280;57318;56.232;43.944;2022-12-07T02:52:17;100895.63;;;-12.02;75.97
69980;BME280;57318;56.232;43.944;2022-12-07T02:54:43;100911.72;;;-12.06;76.23
69980;BME280;57318;56.232;43.944;2022-12-07T03:08:01;100913.09;;;-12.16;76.63
69980;BME280;57318;56.232;43.944;2022-12-07T03:13:22;100920.59;;;-12.20;76.58
69980;BME280;57318;56.232;43.944;2022-12-07T03:15:50;100912.88;;;-12.22;76.87
69980;BME280;57318;56.232;43.944;2022-12-07T03:18:22;100912.06;;;-12.21;76.99
69980;BME280;57318;56.232;43.944;2022-12-07T03:20:50;100912.81;;;-12.23;77.05
69980;BME280;57318;56.232;43.944;2022-12-07T03:23:18;100912.81;;;-12.23;77.15
69980;BME280;57318;56.232;43.944;2022-12-07T03:25:49;100903.47;;;-12.23;77.28
69980;BME280;57318;56.232;43.944;2022-12-07T03:28:19;100906.78;;;-12.25;77.47
69980;BME280;57318;56.232;43.944;2022-12-07T03:31:09;100917.81;;;-12.26;77.36
69980;BME280;57318;56.232;43.944;2022-12-07T03:33:56;100905.13;;;-12.23;77.24
69980;BME280;57318;56.232;43.944;2022-12-07T03:37:04;100904.16;;;-12.27;77.47
69980;BME280;57318;56.232;43.944;2022-12-07T03:42:05;100901.44;;;-12.31;77.65
69980;BME280;57318;56.232;43.944;2022-12-07T03:44:33;100917.66;;;-12.31;77.89
69980;BME280;57318;56.232;43.944;2022-12-07T03:47:04;100908.19;;;-12.33;77.96
69980;BME280;57318;56.232;43.944;2022-12-07T03:49:59;100927.72;;;-12.36;78.25
69980;BME280;57318;56.232;43.944;2022-12-07T03:52:45;100908.09;;;-12.37;78.44
69980;BME280;57318;56.232;43.944;2022-12-07T03:55:33;100927.69;;;-12.37;78.56
69980;BME280;57318;56.232;43.944;2022-12-07T03:58:11;100929.31;;;-12.39;78.34
69980;BME280;57318;56.232;43.944;2022-12-07T04:00:38;100924.19;;;-12.39;78.83
69980;BME280;57318;56.232;43.944;2022-12-07T04:03:03;100919.81;;;-12.42;78.70
69980;BME280;57318;56.232;43.944;2022-12-07T04:05:29;100925.78;;;-12.43;78.93
69980;BME280;57318;56.232;43.944;2022-12-07T04:07:55;100923.91;;;-12.47;78.99
69980;BME280;57318;56.232;43.944;2022-12-07T04:10:20;100924.84;;;-12.45;78.69
69980;BME280;57318;56.232;43.944;2022-12-07T04:12:46;100926.53;;;-12.45;78.88
69980;BME280;57318;56.232;43.944;2022-12-07T04:15:12;100927.38;;;-12.45;79.06
69980;BME280;57318;56.232;43.944;2022-12-07T04:17:38;100924.75;;;-12.48;79.27
69980;BME280;57318;56.232;43.944;2022-12-07T04:20:05;100932.31;;;-12.51;79.18
69980;BME280;57318;56.232;43.944;2022-12-07T04:22:31;100911.88;;;-12.49;79.36
69980;BME280;57318;56.232;43.944;2022-12-07T04:24:56;100921.97;;;-12.54;79.51
69980;BME280;57318;56.232;43.944;2022-12-07T04:27:26;100923.56;;;-12.56;79.76
69980;BME280;57318;56.232;43.944;2022-12-07T04:29:53;100923.56;;;-12.56;79.62
69980;BME280;57318;56.232;43.944;2022-12-07T04:32:20;100912.41;;;-12.58;79.82
69980;BME280;57318;56.232;43.944;2022-12-07T04:34:45;100909.91;;;-12.57;79.83
69980;BME280;57318;56.232;43.944;2022-12-07T04:37:11;100920.72;;;-12.64;79.76
69980;BME280;57318;56.232;43.944;2022-12-07T04:39:37;100920.66;;;-12.65;79.88
69980;BME280;57318;56.232;43.944;2022-12-07T04:42:02;100920.53;;;-12.68;80.35
69980;BME280;57318;56.232;43.944;2022-12-07T04:44:29;100922.19;;;-12.71;80.45
69980;BME280;57318;56.232;43.944;2022-12-07T04:46:56;100922.19;;;-12.71;80.29
69980;BME280;57318;56.232;43.944;2022-12-07T04:49:22;100930.66;;;-12.72;80.55
69980;BME280;57318;56.232;43.944;2022-12-07T04:51:49;100923.81;;;-12.73;80.34
69980;BME280;57318;56.232;43.944;2022-12-07T04:54:16;100921.31;;;-12.71;80.56
69980;BME280;57318;56.232;43.944;2022-12-07T04:56:42;100933.16;;;-12.73;80.67
69980;BME280;57318;56.232;43.944;2022-12-07T04:59:10;100933.94;;;-12.76;80.79
69980;BME280;57318;56.232;43.944;2022-12-07T05:01:36;100927.84;;;-12.79;80.58
69980;BME280;57318;56.232;43.944;2022-12-07T05:04:02;100945.81;;;-12.78;80.87
69980;BME280;57318;56.232;43.944;2022-12-07T05:06:28;100934.69;;;-12.78;81.05
69980;BME280;57318;56.232;43.944;2022-12-07T05:08:53;100943.09;;;-12.82;81.10
69980;BME280;57318;56.232;43.944;2022-12-07T05:11:19;100931.44;;;-12.74;80.99
69980;BME280;57318;56.232;43.944;2022-12-07T05:14:08;100931.44;;;-12.74;80.92
69980;BME280;57318;56.232;43.944;2022-12-07T05:16:33;100928.69;;;-12.79;80.96
69980;BME280;57318;56.232;43.944;2022-12-07T05:18:59;100946.56;;;-12.80;81.15
69980;BME280;57318;56.232;43.944;2022-12-07T05:21:24;100953.56;;;-12.76;81.09
69980;BME280;57318;56.232;43.944;2022-12-07T05:23:50;100942.47;;;-12.75;80.85
69980;BME280;57318;56.232;43.944;2022-12-07T05:26:16;100937.41;;;-12.74;81.01
69980;BME280;57318;56.232;43.944;2022-12-07T05:28:42;100933.16;;;-12.73;80.71
69980;BME280;57318;56.232;43.944;2022-12-07T05:31:08;100940.91;;;-12.72;80.71
69980;BME280;57318;56.232;43.944;2022-12-07T05:33:34;100940.78;;;-12.75;80.79
69980;BME280;57318;56.232;43.944;2022-12-07T05:35:59;100948.53;;;-12.73;80.80
69980;BME280;57318;56.232;43.944;2022-12-07T05:38:31;100955.34;;;-12.74;80.53
69980;BME280;57318;56.232;43.944;2022-12-07T05:41:01;100952.78;;;-12.74;80.33
69980;BME280;57318;56.232;43.944;2022-12-07T05:43:27;100940.91;;;-12.72;80.32
69980;BME280;57318;56.232;43.944;2022-12-07T05:45:53;100947.91;;;-12.67;80.02
69980;BME280;57318;56.232;43.944;2022-12-07T05:48:18;100948.81;;;-12.65;79.69
69980;BME280;57318;56.232;43.944;2022-12-07T05:50:47;100955.69;;;-12.64;79.69
69980;BME280;57318;56.232;43.944;2022-12-07T05:53:13;100953.38;;;-12.58;79.45
69980;BME280;57318;56.232;43.944;2022-12-07T05:55:38;100940.75;;;-12.54;79.17
69980;BME280;57318;56.232;43.944;2022-12-07T05:58:04;100947.69;;;-12.51;79.05
69980;BME280;57318;56.232;43.944;2022-12-07T06:00:48;100946.09;;;-12.47;78.46
69980;BME280;57318;56.232;43.944;2022-12-07T06:03:13;100946.97;;;-12.47;78.56
69980;BME280;57318;56.232;43.944;2022-12-07T06:05:39;100950.50;;;-12.43;78.46
69980;BME280;57318;56.232;43.944;2022-12-07T06:08:05;100940.31;;;-12.42;77.98
69980;BME280;57318;56.232;43.944;2022-12-07T06:10:30;100943.81;;;-12.40;78.15
69980;BME280;57318;56.232;43.944;2022-12-07T06:12:56;100938.16;;;-12.31;77.84
69980;BME280;57318;56.232;43.944;2022-12-07T06:15:22;100943.09;;;-11.87;76.72
69980;BME280;57318;56.232;43.944;2022-12-07T06:17:48;100936.50;;;-11.29;74.52
69980;BME280;57318;56.232;43.944;2022-12-07T06:20:13;100943.59;;;-10.66;72.31
69980;BME280;57318;56.232;43.944;2022-12-07T06:22:40;100942.78;;;-10.04;69.70
69980;BME280;57318;56.232;43.944;2022-12-07T06:25:06;100938.22;;;-9.16;66.77
69980;BME280;57318;56.232;43.944;2022-12-07T06:27:32;100930.91;;;-8.59;64.13
69980;BME280;57318;56.232;43.944;2022-12-07T06:29:58;100944.38;;;-8.30;62.20
69980;BME280;57318;56.232;43.944;2022-12-07T06:32:24;100947.09;;;-7.81;60.83
69980;BME280;57318;56.232;43.944;2022-12-07T06:34:49;100937.72;;;-7.76;59.51
69980;BME280;57318;56.232;43.944;2022-12-07T06:37:15;100934.84;;;-7.44;58.41
69980;BME280;57318;56.232;43.944;2022-12-07T06:39:41;100934.16;;;-7.83;58.51
69980;BME280;57318;56.232;43.944;2022-12-07T06:42:06;100933.31;;;-7.33;57.87
69980;BME280;57318;56.232;43.944;2022-12-07T06:44:32;100930.50;;;-6.92;56.59
69980;BME280;57318;56.232;43.944;2022-12-07T06:46:58;100938.66;;;-6.65;55.30
69980;BME280;57318;56.232;43.944;2022-12-07T06:49:23;100933.72;;;-6.50;54.36
69980;BME280;57318;56.232;43.944;2022-12-07T06:51:49;100937.13;;;-6.53;54.22
69980;BME280;57318;56.232;43.944;2022-12-07T06:54:15;100926.25;;;-6.28;53.41
69980;BME280;57318;56.232;43.944;2022-12-07T06:56:41;100935.13;;;-6.06;52.86
69980;BME280;57318;56.232;43.944;2022-12-07T06:59:07;100935.97;;;-6.07;52.31
69980;BME280;57318;56.232;43.944;2022-12-07T07:01:34;100940.34;;;-6.03;52.56
69980;BME280;57318;56.232;43.944;2022-12-07T07:04:00;100937.63;;;-6.14;51.95
69980;BME280;57318;56.232;43.944;2022-12-07T07:06:27;100942.25;;;-5.84;51.53
69980;BME280;57318;56.232;43.944;2022-12-07T07:08:52;100940.66;;;-5.71;50.95
69980;BME280;57318;56.232;43.944;2022-12-07T07:11:18;100945.03;;;-5.67;50.82
69980;BME280;57318;56.232;43.944;2022-12-07T07:13:45;100940.72;;;-5.66;50.45
69980;BME280;57318;56.232;43.944;2022-12-07T07:16:10;100947.13;;;-6.13;50.76
69980;BME280;57318;56.232;43.944;2022-12-07T07:18:36;100955.66;;;-5.40;49.74
69980;BME280;57318;56.232;43.944;2022-12-07T07:21:03;100953.22;;;-5.20;48.97
69980;BME280;57318;56.232;43.944;2022-12-07T07:23:28;100952.38;;;-5.21;48.75
69980;BME280;57318;56.232;43.944;2022-12-07T07:25:54;100964.56;;;-5.11;48.06
69980;BME280;57318;56.232;43.944;2022-12-07T07:28:20;100951.41;;;-5.32;48.39
69980;BME280;57318;56.232;43.944;2022-12-07T07:30:45;100953.38;;;-5.03;48.37
69980;BME280;57318;56.232;43.944;2022-12-07T07:33:11;100959.22;;;-5.28;48.12
69980;BME280;57318;56.232;43.944;2022-12-07T07:35:37;100955.78;;;-5.27;48.85
69980;BME280;57318;56.232;43.944;2022-12-07T07:38:05;100958.56;;;-5.03;48.04
69980;BME280;57318;56.232;43.944;2022-12-07T07:40:31;100954.09;;;-5.21;48.19
69980;BME280;57318;56.232;43.944;2022-12-07T07:42:57;100954.16;;;-5.15;48.14
69980;BME280;57318;56.232;43.944;2022-12-07T07:45:24;100958.56;;;-5.03;47.93
69980;BME280;57318;56.232;43.944;2022-12-07T07:47:50;100943.97;;;-4.91;47.34
69980;BME280;57318;56.232;43.944;2022-12-07T07:50:17;100971.81;;;-4.65;46.36
69980;BME280;57318;56.232;43.944;2022-12-07T07:52:43;100949.34;;;-4.63;46.67
69980;BME280;57318;56.232;43.944;2022-12-07T07:55:09;100957.16;;;-4.58;46.42
69980;BME280;57318;56.232;43.944;2022-12-07T07:57:39;100976.34;;;-4.35;46.18
69980;BME280;57318;56.232;43.944;2022-12-07T08:00:07;100960.06;;;-3.96;45.33
69980;BME280;57318;56.232;43.944;2022-12-07T08:02:33;100964.50;;;-3.71;44.91
69980;BME280;57318;56.232;43.944;2022-12-07T08:04:59;100963.59;;;-3.76;44.20
69980;BME280;57318;56.232;43.944;2022-12-07T08:07:25;100949.84;;;-3.38;44.04
69980;BME280;57318;56.232;43.944;2022-12-07T08:09:50;100956.75;;;-3.45;43.47
69980;BME280;57318;56.232;43.944;2022-12-07T08:12:16;100954.16;;;-3.45;43.99
69980;BME280;57318;56.232;43.944;2022-12-07T08:14:42;100949.00;;;-3.08;43.52
69980;BME280;57318;56.232;43.944;2022-12-07T08:17:07;100955.94;;;-3.25;43.79
69980;BME280;57318;56.232;43.944;2022-12-07T08:19:33;100955.06;;;-3.01;42.88
69980;BME280;57318;56.232;43.944;2022-12-07T08:21:58;100950.69;;;-2.51;42.03
69980;BME280;57318;56.232;43.944;2022-12-07T08:24:24;100955.06;;;-2.65;42.09
69980;BME280;57318;56.232;43.944;2022-12-07T08:26:50;100947.19;;;-2.42;41.83
69980;BME280;57318;56.232;43.944;2022-12-07T08:29:16;100957.59;;;-2.47;41.39
69980;BME280;57318;56.232;43.944;2022-12-07T08:31:41;100951.50;;;-2.35;41.19
69980;BME280;57318;56.232;43.944;2022-12-07T08:34:07;100959.34;;;-2.41;41.49
69980;BME280;57318;56.232;43.944;2022-12-07T08:36:36;100948.88;;;-2.29;41.41
69980;BME280;57318;56.232;43.944;2022-12-07T08:39:01;100946.97;;;-1.80;40.49
69980;BME280;57318;56.232;43.944;2022-12-07T08:41:27;100944.41;;;-1.88;40.11
69980;BME280;57318;56.232;43.944;2022-12-07T08:43:52;100943.66;;;-2.16;40.90
69980;BME280;57318;56.232;43.944;2022-12-07T08:48:50;100942.50;;;-1.57;39.98
69980;BME280;57318;56.232;43.944;2022-12-07T08:51:17;100940.59;;;-1.33;39.55
69980;BME280;57318;56.232;43.944;2022-12-07T08:53:43;100945.00;;;-1.41;39.48
69980;BME280;57318;56.232;43.944;2022-12-07T08:56:09;100947.63;;;-1.41;39.68
69980;BME280;57318;56.232;43.944;2022-12-07T08:58:35;100942.81;;;-0.84;38.74
69980;BME280;57318;56.232;43.944;2022-12-07T09:01:01;100944.69;;;-0.98;38.10
69980;BME280;57318;56.232;43.944;2022-12-07T09:03:26;100937.34;;;-1.69;39.45
69980;BME280;57318;56.232;43.944;2022-12-07T09:05:53;100937.81;;;-1.10;39.47
69980;BME280;57318;56.232;43.944;2022-12-07T09:08:20;100955.16;;;-1.03;39.21
69980;BME280;57318;56.232;43.944;2022-12-07T09:10:47;100953.22;;;-0.79;38.40
69980;BME280;57318;56.232;43.944;2022-12-07T09:13:13;100951.44;;;-0.77;38.79
69980;BME280;57318;56.232;43.944;2022-12-07T09:15:38;100950.28;;;-0.45;37.48
69980;BME280;57318;56.232;43.944;2022-12-07T09:18:04;100950.50;;;-0.67;37.93
69980;BME280;57318;56.232;43.944;2022-12-07T09:20:30;100958.22;;;-0.58;37.94
69980;BME280;57318;56.232;43.944;2022-12-07T09:22:56;100954.31;;;-0.16;37.10
69980;BME280;57318;56.232;43.944;2022-12-07T09:25:21;100953.16;;;0.06;36.63
69980;BME280;57318;56.232;43.944;2022-12-07T09:27:47;100952.53;;;0.56;36.73
69980;BME280;57318;56.232;43.944;2022-12-07T09:30:13;100950.97;;;0.41;36.28
69980;BME280;57318;56.232;43.944;2022-12-07T09:32:39;100958.72;;;-0.20;37.02
69980;BME280;57318;56.232;43.944;2022-12-07T09:35:04;100955.09;;;-0.08;37.19
69980;BME280;57318;56.232;43.944;2022-12-07T09:37:30;100952.31;;;-0.74;38.13
69980;BME280;57318;56.232;43.944;2022-12-07T09:40:00;100943.13;;;-0.28;37.43
69980;BME280;57318;56.232;43.944;2022-12-07T09:42:34;100962.03;;;-0.06;37.27
69980;BME280;57318;56.232;43.944;2022-12-07T09:45:01;100946.28;;;0.64;35.92
69980;BME280;57318;56.232;43.944;2022-12-07T09:47:29;100947.78;;;0.81;35.47
69980;BME280;57318;56.232;43.944;2022-12-07T09:50:03;100942.56;;;0.81;35.76
69980;BME280;57318;56.232;43.944;2022-12-07T09:52:31;100948.53;;;1.40;34.61
69980;BME280;57318;56.232;43.944;2022-12-07T09:54:57;100942.00;;;2.07;34.10
69980;BME280;57318;56.232;43.944;2022-12-07T09:57:28;100935.78;;;1.69;34.30
69980;BME280;57318;56.232;43.944;2022-12-07T10:00:02;100936.88;;;2.01;33.90
69980;BME280;57318;56.232;43.944;2022-12-07T10:02:39;100937.91;;;2.34;33.19
69980;BME280;57318;56.232;43.944;2022-12-07T10:05:20;100940.31;;;2.82;32.54
69980;BME280;57318;56.232;43.944;2022-12-07T10:07:47;100943.44;;;2.61;32.21
69980;BME280;57318;56.232;43.944;2022-12-07T10:10:22;100948.03;;;2.10;33.27
69980;BME280;57318;56.232;43.944;2022-12-07T10:12:55;100946.78;;;3.05;32.82
69980;BME280;57318;56.232;43.944;2022-12-07T10:15:21;100937.41;;;2.95;32.25
69980;BME280;57318;56.232;43.944;2022-12-07T10:17:49;100937.00;;;2.37;32.89
69980;BME280;57318;56.232;43.944;2022-12-07T10:20:23;100941.50;;;1.89;33.28
69980;BME280;57318;56.232;43.944;2022-12-07T10:25:23;100933.25;;;1.16;34.76
69980;BME280;57318;56.232;43.944;2022-12-07T10:28:14;100945.88;;;1.42;34.54
69980;BME280;57318;56.232;43.944;2022-12-07T10:30:54;100941.94;;;1.18;34.98
69980;BME280;57318;56.232;43.944;2022-12-07T10:33:36;100941.22;;;1.58;34.17
69980;BME280;57318;56.232;43.944;2022-12-07T10:36:24;100934.78;;;1.29;34.41
69980;BME280;57318;56.232;43.944;2022-12-07T10:41:25;100926.19;;;1.68;34.41
69980;BME280;57318;56.232;43.944;2022-12-07T10:43:53;100935.31;;;1.48;34.61
69980;BME280;57318;56.232;43.944;2022-12-07T10:46:38;100940.81;;;1.33;34.78
69980;BME280;57318;56.232;43.944;2022-12-07T10:52:28;100923.53;;;0.09;36.94
69980;BME280;57318;56.232;43.944;2022-12-07T10:58:31;100940.97;;;0.07;37.64
69980;BME280;57318;56.232;43.944;2022-12-07T11:06:35;100929.50;;;0.17;37.02
69980;BME280;57318;56.232;43.944;2022-12-07T11:15:04;100935.19;;;-1.09;39.69
69980;BME280;57318;56.232;43.944;2022-12-07T11:18:19;100933.69;;;-1.40;40.86
69980;BME280;57318;56.232;43.944;2022-12-07T11:21:10;100923.28;;;-1.45;41.19
69980;BME280;57318;56.232;43.944;2022-12-07T11:24:01;100925.88;;;-1.42;41.46
69980;BME280;57318;56.232;43.944;2022-12-07T11:35:07;100917.69;;;-2.40;43.53
69980;BME280;57318;56.232;43.944;2022-12-07T11:37:35;100908.06;;;-2.25;43.26
69980;BME280;57318;56.232;43.944;2022-12-07T11:40:13;100907.28;;;-2.41;43.56
69980;BME280;57318;56.232;43.944;2022-12-07T11:42:52;100916.06;;;-2.95;44.49
69980;BME280;57318;56.232;43.944;2022-12-07T11:45:33;100910.84;;;-3.53;45.76
69980;BME280;57318;56.232;43.944;2022-12-07T11:48:00;100909.03;;;-3.85;46.73
69980;BME280;57318;56.232;43.944;2022-12-07T11:50:42;100908.97;;;-4.10;47.50
69980;BME280;57318;56.232;43.944;2022-12-07T11:58:54;100907.53;;;-5.14;50.03
69980;BME280;57318;56.232;43.944;2022-12-07T12:01:42;100901.81;;;-5.72;51.69
69980;BME280;57318;56.232;43.944;2022-12-07T12:06:38;100905.69;;;-6.83;55.29
69980;BME280;57318;56.232;43.944;2022-12-07T12:09:19;100905.28;;;-7.62;57.14
69980;BME280;57318;56.232;43.944;2022-12-07T12:23:05;100916.56;;;-9.91;66.43
69980;BME280;57318;56.232;43.944;2022-12-07T12:25:51;100910.56;;;-10.22;68.01
69980;BME280;57318;56.232;43.944;2022-12-07T12:31:30;100913.31;;;-10.47;69.05
69980;BME280;57318;56.232;43.944;2022-12-07T12:33:59;100910.56;;;-10.54;69.31
69980;BME280;57318;56.232;43.944;2022-12-07T12:47:37;100904.44;;;-10.87;70.18
69980;BME280;57318;56.232;43.944;2022-12-07T12:50:16;100910.22;;;-10.95;70.69
69980;BME280;57318;56.232;43.944;2022-12-07T12:57:34;100896.13;;;-11.08;71.07
69980;BME280;57318;56.232;43.944;2022-12-07T13:00:15;100900.34;;;-11.10;71.24
69980;BME280;57318;56.232;43.944;2022-12-07T13:02:54;100896.78;;;-11.13;71.48
69980;BME280;57318;56.232;43.944;2022-12-07T13:05:26;100902.47;;;-11.23;72.29
69980;BME280;57318;56.232;43.944;2022-12-07T13:15:40;100905.50;;;-11.35;73.41
69980;BME280;57318;56.232;43.944;2022-12-07T13:21:00;100889.97;;;-11.40;73.89
69980;BME280;57318;56.232;43.944;2022-12-07T13:23:29;100888.09;;;-11.46;74.29
69980;BME280;57318;56.232;43.944;2022-12-07T13:28:44;100881.97;;;-11.49;74.44
69980;BME280;57318;56.232;43.944;2022-12-07T13:31:30;100887.03;;;-11.51;74.78
69980;BME280;57318;56.232;43.944;2022-12-07T13:33:57;100891.22;;;-11.54;75.12
69980;BME280;57318;56.232;43.944;2022-12-07T13:36:38;100880.69;;;-11.62;75.30
69980;BME280;57318;56.232;43.944;2022-12-07T13:41:42;100886.41;;;-11.71;75.47
69980;BME280;57318;56.232;43.944;2022-12-07T13:44:13;100879.47;;;-11.73;75.89
69980;BME280;57318;56.232;43.944;2022-12-07T13:49:26;100880.91;;;-11.82;76.10
69980;BME280;57318;56.232;43.944;2022-12-07T13:51:53;100896.31;;;-11.82;76.12
69980;BME280;57318;56.232;43.944;2022-12-07T13:54:19;100884.25;;;-11.84;76.38
69980;BME280;57318;56.232;43.944;2022-12-07T13:56:47;100887.72;;;-11.82;76.17
69980;BME280;57318;56.232;43.944;2022-12-07T13:59:19;100886.00;;;-11.83;76.05
69980;BME280;57318;56.232;43.944;2022-12-07T14:01:47;100890.91;;;-11.89;75.85
69980;BME280;57318;56.232;43.944;2022-12-07T14:06:50;100887.50;;;-11.88;75.70
69980;BME280;57318;56.232;43.944;2022-12-07T14:11:45;100879.66;;;-11.94;76.07
69980;BME280;57318;56.232;43.944;2022-12-07T14:14:14;100876.16;;;-11.96;76.26
69980;BME280;57318;56.232;43.944;2022-12-07T14:16:40;100889.72;;;-12.01;76.22
69980;BME280;57318;56.232;43.944;2022-12-07T14:19:43;100884.59;;;-12.01;76.07
69980;BME280;57318;56.232;43.944;2022-12-07T14:22:20;100889.66;;;-12.02;76.09
69980;BME280;57318;56.232;43.944;2022-12-07T14:24:47;100870.81;;;-12.03;76.17
69980;BME280;57318;56.232;43.944;2022-12-07T14:27:22;100864.88;;;-12.02;75.86
69980;BME280;57318;56.232;43.944;2022-12-07T14:29:51;100876.84;;;-12.02;75.97
69980;BME280;57318;56.232;43.944;2022-12-07T14:32:25;100871.59;;;-12.05;75.90
69980;BME280;57318;56.232;43.944;2022-12-07T14:37:21;100871.66;;;-12.04;75.34
69980;BME280;57318;56.232;43.944;2022-12-07T14:39:46;100880.81;;;-12.10;75.69
69980;BME280;57318;56.232;43.944;2022-12-07T14:42:12;100881.69;;;-12.10;75.74
69980;BME280;57318;56.232;43.944;2022-12-07T14:44:38;100884.31;;;-12.08;75.89
69980;BME280;57318;56.232;43.944;2022-12-07T14:47:03;100887.47;;;-12.16;75.80
69980;BME280;57318;56.232;43.944;2022-12-07T14:49:29;100874.75;;;-12.12;75.72
69980;BME280;57318;56.232;43.944;2022-12-07T14:51:54;100877.31;;;-12.12;75.43
69980;BME280;57318;56.232;43.944;2022-12-07T14:54:22;100873.97;;;-12.11;75.16